Bildad 1946 - 70 års jubileum i år!   Lördagen den 1 oktober 2016 (Ragnar, Ragna)

Blekinge Flygklubb
Eringsbodavägen 16 B
372 92 Kallinge
Org.nr. 835600-0144

Det finns inget på Anslagstavlan.

Väder ESDF

METAR
ESDF 011150Z 24005KT 180V290 9999 FEW030TCU SCT035 BKN065 16/10 Q1012

TAF
ESDF 011130Z 0112/0114 22007KT 9999 SCT040 PROB40 0112/0114 SHRA SCT035CB

Förgasaris
Måttlig is vid planflykt, svår is vid låg effekt

METAR | TAF | Nordic SWC | Väderstatistik

Inhämta alltid aktuellt väder hos LFV innan du flyger.

NOTAM för kommande 24h

+ = 0-3 dgr | - = >3 dgr gammal
Kontrollera alltid LFV NOTAM